sensor_id;sensor_type;location;lat;lon;timestamp;pressure;altitude;pressure_sealevel;temperature;humidity
4469;BME280;2247;42.666;23.292;2023-05-20T00:01:35;94686.09;;;16.23;67.87
4469;BME280;2247;42.666;23.292;2023-05-20T00:04:02;94684.91;;;16.15;68.13
4469;BME280;2247;42.666;23.292;2023-05-20T00:06:29;94678.69;;;16.20;67.90
4469;BME280;2247;42.666;23.292;2023-05-20T00:08:58;94683.16;;;16.10;68.65
4469;BME280;2247;42.666;23.292;2023-05-20T00:11:25;94685.09;;;16.19;68.24
4469;BME280;2247;42.666;23.292;2023-05-20T00:13:52;94689.63;;;16.04;68.01
4469;BME280;2247;42.666;23.292;2023-05-20T00:16:19;94681.06;;;16.07;68.32
4469;BME280;2247;42.666;23.292;2023-05-20T00:18:45;94684.69;;;16.11;68.85
4469;BME280;2247;42.666;23.292;2023-05-20T00:21:12;94673.00;;;16.12;68.87
4469;BME280;2247;42.666;23.292;2023-05-20T00:23:39;94683.44;;;16.23;68.60
4469;BME280;2247;42.666;23.292;2023-05-20T00:26:07;94678.59;;;16.25;68.66
4469;BME280;2247;42.666;23.292;2023-05-20T00:28:35;94681.56;;;16.23;68.40
4469;BME280;2247;42.666;23.292;2023-05-20T00:31:01;94676.66;;;16.17;67.32
4469;BME280;2247;42.666;23.292;2023-05-20T00:33:29;94680.06;;;16.31;66.29
4469;BME280;2247;42.666;23.292;2023-05-20T00:35:56;94666.66;;;16.36;65.70
4469;BME280;2247;42.666;23.292;2023-05-20T00:38:23;94660.25;;;16.37;66.31
4469;BME280;2247;42.666;23.292;2023-05-20T00:40:50;94659.84;;;16.43;65.37
4469;BME280;2247;42.666;23.292;2023-05-20T00:43:19;94655.22;;;16.35;65.40
4469;BME280;2247;42.666;23.292;2023-05-20T00:45:46;94658.66;;;16.36;65.62
4469;BME280;2247;42.666;23.292;2023-05-20T00:48:14;94656.13;;;16.31;65.82
4469;BME280;2247;42.666;23.292;2023-05-20T00:50:41;94638.81;;;16.20;66.36
4469;BME280;2247;42.666;23.292;2023-05-20T00:53:08;94659.25;;;16.33;66.22
4469;BME280;2247;42.666;23.292;2023-05-20T00:55:37;94640.22;;;16.17;67.64
4469;BME280;2247;42.666;23.292;2023-05-20T00:58:04;94643.13;;;16.29;67.35
4469;BME280;2247;42.666;23.292;2023-05-20T01:00:32;94651.69;;;16.26;67.45
4469;BME280;2247;42.666;23.292;2023-05-20T01:02:59;94649.22;;;16.30;67.68
4469;BME280;2247;42.666;23.292;2023-05-20T01:05:26;94639.19;;;16.27;66.59
4469;BME280;2247;42.666;23.292;2023-05-20T01:07:53;94642.25;;;16.20;67.36
4469;BME280;2247;42.666;23.292;2023-05-20T01:10:22;94645.22;;;16.19;68.56
4469;BME280;2247;42.666;23.292;2023-05-20T01:12:54;94643.06;;;16.07;68.73
4469;BME280;2247;42.666;23.292;2023-05-20T01:15:23;94646.81;;;16.06;67.72
4469;BME280;2247;42.666;23.292;2023-05-20T01:17:57;94648.78;;;16.14;67.13
4469;BME280;2247;42.666;23.292;2023-05-20T01:20:27;94660.03;;;16.11;67.17
4469;BME280;2247;42.666;23.292;2023-05-20T01:22:58;94662.59;;;16.02;68.57
4469;BME280;2247;42.666;23.292;2023-05-20T01:25:25;94662.59;;;16.02;68.36
4469;BME280;2247;42.666;23.292;2023-05-20T01:27:53;94662.00;;;15.92;68.70
4469;BME280;2247;42.666;23.292;2023-05-20T01:30:23;94655.59;;;15.93;68.87
4469;BME280;2247;42.666;23.292;2023-05-20T01:32:54;94655.31;;;15.94;68.31
4469;BME280;2247;42.666;23.292;2023-05-20T01:35:23;94658.31;;;16.15;66.67
4469;BME280;2247;42.666;23.292;2023-05-20T01:37:52;94658.31;;;16.15;66.38
4469;BME280;2247;42.666;23.292;2023-05-20T01:40:22;94647.47;;;16.11;65.84
4469;BME280;2247;42.666;23.292;2023-05-20T01:42:49;94624.38;;;15.98;65.65
4469;BME280;2247;42.666;23.292;2023-05-20T01:45:17;94646.53;;;16.07;65.71
4469;BME280;2247;42.666;23.292;2023-05-20T01:47:44;94643.22;;;15.88;67.49
4469;BME280;2247;42.666;23.292;2023-05-20T01:50:11;94643.50;;;15.73;68.65
4469;BME280;2247;42.666;23.292;2023-05-20T01:52:38;94646.66;;;15.75;68.27
4469;BME280;2247;42.666;23.292;2023-05-20T01:55:06;94645.19;;;15.69;68.79
4469;BME280;2247;42.666;23.292;2023-05-20T01:57:34;94640.06;;;15.59;69.09
4469;BME280;2247;42.666;23.292;2023-05-20T02:00:02;94645.59;;;15.76;68.64
4469;BME280;2247;42.666;23.292;2023-05-20T02:02:29;94650.09;;;15.89;68.00
4469;BME280;2247;42.666;23.292;2023-05-20T02:04:56;94638.38;;;15.90;67.11
4469;BME280;2247;42.666;23.292;2023-05-20T02:07:22;94644.41;;;15.82;67.44
4469;BME280;2247;42.666;23.292;2023-05-20T02:09:49;94638.69;;;15.75;67.70
4469;BME280;2247;42.666;23.292;2023-05-20T02:12:16;94640.84;;;15.73;68.03
4469;BME280;2247;42.666;23.292;2023-05-20T02:14:46;94644.09;;;15.70;68.37
4469;BME280;2247;42.666;23.292;2023-05-20T02:17:16;94637.22;;;15.69;68.08
4469;BME280;2247;42.666;23.292;2023-05-20T02:19:43;94644.69;;;15.67;68.58
4469;BME280;2247;42.666;23.292;2023-05-20T02:22:11;94632.00;;;15.64;68.19
4469;BME280;2247;42.666;23.292;2023-05-20T02:24:38;94640.97;;;15.68;67.92
4469;BME280;2247;42.666;23.292;2023-05-20T02:27:05;94640.66;;;15.69;68.18
4469;BME280;2247;42.666;23.292;2023-05-20T02:29:32;94633.78;;;15.68;68.57
4469;BME280;2247;42.666;23.292;2023-05-20T02:32:01;94628.25;;;15.65;69.03
4469;BME280;2247;42.666;23.292;2023-05-20T02:34:27;94607.59;;;15.48;68.96
4469;BME280;2247;42.666;23.292;2023-05-20T02:36:55;94622.16;;;15.64;68.87
4469;BME280;2247;42.666;23.292;2023-05-20T02:39:22;94628.53;;;15.63;69.02
4469;BME280;2247;42.666;23.292;2023-05-20T02:41:49;94631.19;;;15.63;68.80
4469;BME280;2247;42.666;23.292;2023-05-20T02:44:16;94633.69;;;15.60;68.92
4469;BME280;2247;42.666;23.292;2023-05-20T02:46:43;94627.28;;;15.61;68.42
4469;BME280;2247;42.666;23.292;2023-05-20T02:49:11;94632.50;;;15.66;68.09
4469;BME280;2247;42.666;23.292;2023-05-20T02:51:39;94636.84;;;15.62;68.66
4469;BME280;2247;42.666;23.292;2023-05-20T02:54:06;94631.03;;;15.60;68.70
4469;BME280;2247;42.666;23.292;2023-05-20T02:56:33;94630.22;;;15.59;69.26
4469;BME280;2247;42.666;23.292;2023-05-20T02:58:59;94629.94;;;15.61;68.99
4469;BME280;2247;42.666;23.292;2023-05-20T03:01:27;94612.69;;;15.45;69.08
4469;BME280;2247;42.666;23.292;2023-05-20T03:03:54;94632.59;;;15.61;69.16
4469;BME280;2247;42.666;23.292;2023-05-20T03:06:24;94625.59;;;15.65;69.07
4469;BME280;2247;42.666;23.292;2023-05-20T03:08:51;94636.50;;;15.63;68.60
4469;BME280;2247;42.666;23.292;2023-05-20T03:11:17;94640.56;;;15.61;69.11
4469;BME280;2247;42.666;23.292;2023-05-20T03:13:46;94649.50;;;15.65;69.27
4469;BME280;2247;42.666;23.292;2023-05-20T03:16:13;94644.69;;;15.67;69.18
4469;BME280;2247;42.666;23.292;2023-05-20T03:18:41;94647.34;;;15.67;69.74
4469;BME280;2247;42.666;23.292;2023-05-20T03:21:07;94652.28;;;15.60;69.59
4469;BME280;2247;42.666;23.292;2023-05-20T03:23:36;94647.47;;;15.62;69.13
4469;BME280;2247;42.666;23.292;2023-05-20T03:26:03;94653.44;;;15.67;69.44
4469;BME280;2247;42.666;23.292;2023-05-20T03:28:31;94651.88;;;15.80;68.82
4469;BME280;2247;42.666;23.292;2023-05-20T03:30:58;94654.53;;;15.80;69.20
4469;BME280;2247;42.666;23.292;2023-05-20T03:33:29;94657.56;;;15.87;68.90
4469;BME280;2247;42.666;23.292;2023-05-20T03:35:55;94659.44;;;16.00;69.05
4469;BME280;2247;42.666;23.292;2023-05-20T03:38:22;94663.56;;;16.06;68.76
4469;BME280;2247;42.666;23.292;2023-05-20T03:40:50;94663.75;;;16.10;68.45
4469;BME280;2247;42.666;23.292;2023-05-20T03:43:17;94658.22;;;16.06;68.08
4469;BME280;2247;42.666;23.292;2023-05-20T03:45:45;94661.78;;;16.15;67.77
4469;BME280;2247;42.666;23.292;2023-05-20T03:48:12;94664.41;;;16.29;67.80
4469;BME280;2247;42.666;23.292;2023-05-20T03:50:38;94663.00;;;16.45;67.14
4469;BME280;2247;42.666;23.292;2023-05-20T03:53:05;94667.19;;;16.60;66.66
4469;BME280;2247;42.666;23.292;2023-05-20T03:55:33;94661.50;;;16.75;66.29
4469;BME280;2247;42.666;23.292;2023-05-20T03:58:03;94664.59;;;16.91;66.17
4469;BME280;2247;42.666;23.292;2023-05-20T04:00:30;94668.06;;;17.14;65.77
4469;BME280;2247;42.666;23.292;2023-05-20T04:02:57;94664.09;;;17.33;65.90
4469;BME280;2247;42.666;23.292;2023-05-20T04:05:24;94669.38;;;17.56;64.53
4469;BME280;2247;42.666;23.292;2023-05-20T04:07:50;94665.25;;;17.81;64.08
4469;BME280;2247;42.666;23.292;2023-05-20T04:10:18;94674.88;;;18.07;63.12
4469;BME280;2247;42.666;23.292;2023-05-20T04:12:47;94675.25;;;18.32;61.55
4469;BME280;2247;42.666;23.292;2023-05-20T04:15:15;94679.69;;;18.62;60.42
4469;BME280;2247;42.666;23.292;2023-05-20T04:17:43;94658.84;;;18.73;59.15
4469;BME280;2247;42.666;23.292;2023-05-20T04:20:12;94680.47;;;19.06;57.69
4469;BME280;2247;42.666;23.292;2023-05-20T04:22:40;94688.31;;;19.19;57.08
4469;BME280;2247;42.666;23.292;2023-05-20T04:25:07;94685.94;;;19.35;57.46
4469;BME280;2247;42.666;23.292;2023-05-20T04:27:34;94679.16;;;19.55;56.83
4469;BME280;2247;42.666;23.292;2023-05-20T04:30:05;94680.66;;;19.73;57.45
4469;BME280;2247;42.666;23.292;2023-05-20T04:32:33;94679.28;;;19.96;56.31
4469;BME280;2247;42.666;23.292;2023-05-20T04:35:01;94673.00;;;20.22;56.05
4469;BME280;2247;42.666;23.292;2023-05-20T04:37:32;94664.72;;;20.44;55.29
4469;BME280;2247;42.666;23.292;2023-05-20T04:40:01;94675.09;;;20.46;54.21
4469;BME280;2247;42.666;23.292;2023-05-20T04:42:31;94680.75;;;20.73;54.02
4469;BME280;2247;42.666;23.292;2023-05-20T04:44:58;94680.06;;;20.97;52.53
4469;BME280;2247;42.666;23.292;2023-05-20T04:47:26;94685.91;;;21.11;52.46
4469;BME280;2247;42.666;23.292;2023-05-20T04:49:55;94685.25;;;21.35;52.31
4469;BME280;2247;42.666;23.292;2023-05-20T04:52:23;94692.00;;;21.53;51.82
4469;BME280;2247;42.666;23.292;2023-05-20T04:54:50;94687.13;;;21.80;50.55
4469;BME280;2247;42.666;23.292;2023-05-20T04:57:17;94680.13;;;21.99;50.44
4469;BME280;2247;42.666;23.292;2023-05-20T04:59:45;94683.47;;;22.21;50.17
4469;BME280;2247;42.666;23.292;2023-05-20T05:02:13;94674.53;;;22.29;49.38
4469;BME280;2247;42.666;23.292;2023-05-20T05:04:41;94665.88;;;22.48;50.75
4469;BME280;2247;42.666;23.292;2023-05-20T05:07:09;94680.88;;;22.73;50.23
4469;BME280;2247;42.666;23.292;2023-05-20T05:09:37;94686.81;;;23.06;49.15
4469;BME280;2247;42.666;23.292;2023-05-20T05:12:04;94680.59;;;23.18;47.92
4469;BME280;2247;42.666;23.292;2023-05-20T05:14:32;94688.44;;;23.39;47.93
4469;BME280;2247;42.666;23.292;2023-05-20T05:16:59;94692.84;;;23.59;46.68
4469;BME280;2247;42.666;23.292;2023-05-20T05:19:26;94688.53;;;23.70;46.40
4469;BME280;2247;42.666;23.292;2023-05-20T05:21:53;94654.13;;;23.48;45.44
4469;BME280;2247;42.666;23.292;2023-05-20T05:24:23;94679.25;;;23.68;45.48
4469;BME280;2247;42.666;23.292;2023-05-20T05:26:52;94686.56;;;23.83;44.82
4469;BME280;2247;42.666;23.292;2023-05-20T05:29:19;94681.19;;;23.99;43.75
4469;BME280;2247;42.666;23.292;2023-05-20T05:31:46;94678.44;;;24.14;43.74
4469;BME280;2247;42.666;23.292;2023-05-20T05:34:13;94673.09;;;24.30;44.06
4469;BME280;2247;42.666;23.292;2023-05-20T05:36:41;94673.03;;;24.61;44.25
4469;BME280;2247;42.666;23.292;2023-05-20T05:39:18;94663.88;;;24.66;42.56
4469;BME280;2247;42.666;23.292;2023-05-20T05:41:47;94669.72;;;24.87;42.51
4469;BME280;2247;42.666;23.292;2023-05-20T05:44:23;94656.13;;;24.99;41.27
4469;BME280;2247;42.666;23.292;2023-05-20T05:47:04;94623.00;;;24.83;40.43
4469;BME280;2247;42.666;23.292;2023-05-20T05:49:45;94643.91;;;25.05;40.97
4469;BME280;2247;42.666;23.292;2023-05-20T05:52:26;94660.03;;;25.02;41.17
4469;BME280;2247;42.666;23.292;2023-05-20T05:54:54;94668.75;;;25.15;41.76
4469;BME280;2247;42.666;23.292;2023-05-20T05:57:23;94658.88;;;25.22;41.43
4469;BME280;2247;42.666;23.292;2023-05-20T05:59:50;94645.38;;;25.22;42.06
4469;BME280;2247;42.666;23.292;2023-05-20T06:02:31;94662.75;;;25.25;41.95
4469;BME280;2247;42.666;23.292;2023-05-20T06:05:07;94659.16;;;25.36;42.49
4469;BME280;2247;42.666;23.292;2023-05-20T06:07:35;94657.06;;;25.49;41.30
4469;BME280;2247;42.666;23.292;2023-05-20T06:10:04;94654.16;;;25.58;42.13
4469;BME280;2247;42.666;23.292;2023-05-20T06:12:34;94660.34;;;25.58;40.54
4469;BME280;2247;42.666;23.292;2023-05-20T06:15:02;94654.06;;;25.54;39.57
4469;BME280;2247;42.666;23.292;2023-05-20T06:17:41;94651.75;;;25.33;40.77
4469;BME280;2247;42.666;23.292;2023-05-20T06:20:24;94645.28;;;24.96;41.39
4469;BME280;2247;42.666;23.292;2023-05-20T06:23:07;94663.97;;;25.27;41.10
4469;BME280;2247;42.666;23.292;2023-05-20T06:51:25;94624.88;;;25.60;38.49
4469;BME280;2247;42.666;23.292;2023-05-20T06:56:41;94617.34;;;24.88;38.83
4469;BME280;2247;42.666;23.292;2023-05-20T06:59:15;94608.06;;;24.66;39.42
4469;BME280;2247;42.666;23.292;2023-05-20T07:01:56;94629.97;;;24.65;41.17
4469;BME280;2247;42.666;23.292;2023-05-20T07:04:24;94639.25;;;24.67;40.19
4469;BME280;2247;42.666;23.292;2023-05-20T07:06:55;94624.03;;;24.75;39.78
4469;BME280;2247;42.666;23.292;2023-05-20T07:09:23;94645.88;;;24.89;39.48
4469;BME280;2247;42.666;23.292;2023-05-20T07:11:52;94628.75;;;24.62;39.00
4469;BME280;2247;42.666;23.292;2023-05-20T07:14:20;94629.63;;;24.66;38.86
4469;BME280;2247;42.666;23.292;2023-05-20T07:16:47;94634.75;;;24.56;37.86
4469;BME280;2247;42.666;23.292;2023-05-20T07:19:14;94625.34;;;24.65;37.57
4469;BME280;2247;42.666;23.292;2023-05-20T07:21:42;94645.16;;;24.73;37.90
4469;BME280;2247;42.666;23.292;2023-05-20T07:24:11;94638.53;;;24.51;37.85
4469;BME280;2247;42.666;23.292;2023-05-20T07:26:39;94606.47;;;24.46;38.73
4469;BME280;2247;42.666;23.292;2023-05-20T07:29:07;94593.78;;;24.66;36.92
4469;BME280;2247;42.666;23.292;2023-05-20T07:31:34;94622.59;;;24.81;37.37
4469;BME280;2247;42.666;23.292;2023-05-20T07:34:02;94614.13;;;24.63;36.77
4469;BME280;2247;42.666;23.292;2023-05-20T07:36:30;94611.00;;;24.42;37.28
4469;BME280;2247;42.666;23.292;2023-05-20T07:39:02;94627.22;;;24.26;38.52
4469;BME280;2247;42.666;23.292;2023-05-20T07:41:32;94626.69;;;24.05;39.33
4469;BME280;2247;42.666;23.292;2023-05-20T07:44:01;94623.38;;;24.12;38.95
4469;BME280;2247;42.666;23.292;2023-05-20T07:46:29;94625.47;;;24.03;39.33
4469;BME280;2247;42.666;23.292;2023-05-20T07:48:56;94629.47;;;24.24;39.73
4469;BME280;2247;42.666;23.292;2023-05-20T07:51:23;94616.94;;;24.32;40.08
4469;BME280;2247;42.666;23.292;2023-05-20T07:53:50;94594.59;;;24.16;38.84
4469;BME280;2247;42.666;23.292;2023-05-20T07:56:26;94621.13;;;24.29;39.51
4469;BME280;2247;42.666;23.292;2023-05-20T07:58:58;94610.34;;;24.29;38.71
4469;BME280;2247;42.666;23.292;2023-05-20T08:01:26;94623.03;;;24.29;38.74
4469;BME280;2247;42.666;23.292;2023-05-20T08:03:53;94620.75;;;24.15;38.58
4469;BME280;2247;42.666;23.292;2023-05-20T08:06:22;94620.38;;;23.98;39.37
4469;BME280;2247;42.666;23.292;2023-05-20T08:08:49;94613.53;;;23.84;39.10
4469;BME280;2247;42.666;23.292;2023-05-20T08:11:19;94603.59;;;23.73;40.04
4469;BME280;2247;42.666;23.292;2023-05-20T08:13:47;94611.50;;;23.81;39.43
4469;BME280;2247;42.666;23.292;2023-05-20T08:16:16;94616.22;;;23.84;39.56
4469;BME280;2247;42.666;23.292;2023-05-20T08:18:44;94606.84;;;23.78;39.66
4469;BME280;2247;42.666;23.292;2023-05-20T08:23:44;94605.88;;;23.71;39.20
4469;BME280;2247;42.666;23.292;2023-05-20T08:26:11;94592.78;;;23.53;39.34
4469;BME280;2247;42.666;23.292;2023-05-20T08:28:39;94594.63;;;23.37;39.37
4469;BME280;2247;42.666;23.292;2023-05-20T08:31:09;94606.38;;;23.29;40.20
4469;BME280;2247;42.666;23.292;2023-05-20T08:33:38;94598.53;;;23.08;41.32
4469;BME280;2247;42.666;23.292;2023-05-20T08:36:05;94609.94;;;23.05;41.56
4469;BME280;2247;42.666;23.292;2023-05-20T08:38:32;94572.09;;;22.83;42.01
4469;BME280;2247;42.666;23.292;2023-05-20T08:41:00;94600.47;;;22.96;41.95
4469;BME280;2247;42.666;23.292;2023-05-20T08:43:28;94603.91;;;22.81;41.86
4469;BME280;2247;42.666;23.292;2023-05-20T08:46:09;94587.06;;;22.56;42.73
4469;BME280;2247;42.666;23.292;2023-05-20T11:16:56;94479.59;;;22.56;40.74
4469;BME280;2247;42.666;23.292;2023-05-20T11:19:36;94459.22;;;22.55;40.53
4469;BME280;2247;42.666;23.292;2023-05-20T11:22:19;94448.56;;;22.43;40.94
4469;BME280;2247;42.666;23.292;2023-05-20T11:25:05;94429.09;;;22.18;41.73
4469;BME280;2247;42.666;23.292;2023-05-20T12:18:09;94404.97;;;21.78;43.69
4469;BME280;2247;42.666;23.292;2023-05-20T12:20:50;94430.22;;;21.77;44.22
4469;BME280;2247;42.666;23.292;2023-05-20T12:23:26;94420.38;;;21.81;44.38
4469;BME280;2247;42.666;23.292;2023-05-20T12:26:08;94430.06;;;21.85;44.44
4469;BME280;2247;42.666;23.292;2023-05-20T12:28:49;94410.47;;;21.69;44.19
4469;BME280;2247;42.666;23.292;2023-05-20T12:31:30;94454.94;;;21.58;44.82
4469;BME280;2247;42.666;23.292;2023-05-20T12:39:59;94473.19;;;20.26;46.49
4469;BME280;2247;42.666;23.292;2023-05-20T12:42:29;94491.69;;;19.98;47.92
4469;BME280;2247;42.666;23.292;2023-05-20T12:45:11;94482.69;;;19.82;48.79
4469;BME280;2247;42.666;23.292;2023-05-20T12:47:41;94476.59;;;19.73;49.03
4469;BME280;2247;42.666;23.292;2023-05-20T12:50:10;94470.88;;;19.62;49.29
4469;BME280;2247;42.666;23.292;2023-05-20T12:52:41;94482.47;;;19.66;49.26
4469;BME280;2247;42.666;23.292;2023-05-20T12:55:20;94475.16;;;19.54;48.86
4469;BME280;2247;42.666;23.292;2023-05-20T12:57:48;94472.19;;;19.56;49.18
4469;BME280;2247;42.666;23.292;2023-05-20T13:00:17;94476.06;;;19.58;49.40
4469;BME280;2247;42.666;23.292;2023-05-20T13:02:58;94452.16;;;19.62;49.18
4469;BME280;2247;42.666;23.292;2023-05-20T13:05:39;94451.59;;;19.77;49.12
4469;BME280;2247;42.666;23.292;2023-05-20T13:10:37;94445.28;;;19.94;50.06
4469;BME280;2247;42.666;23.292;2023-05-20T13:13:10;94432.34;;;20.17;50.91
4469;BME280;2247;42.666;23.292;2023-05-20T13:15:38;94430.94;;;20.31;49.53
4469;BME280;2247;42.666;23.292;2023-05-20T13:18:05;94417.72;;;20.47;49.21
4469;BME280;2247;42.666;23.292;2023-05-20T13:20:32;94430.38;;;20.59;48.56
4469;BME280;2247;42.666;23.292;2023-05-20T13:23:00;94414.28;;;20.47;48.21
4469;BME280;2247;42.666;23.292;2023-05-20T13:25:28;94416.75;;;20.52;47.28
4469;BME280;2247;42.666;23.292;2023-05-20T13:28:01;94409.03;;;20.50;47.16
4469;BME280;2247;42.666;23.292;2023-05-20T13:35:51;94409.94;;;20.54;47.12
4469;BME280;2247;42.666;23.292;2023-05-20T13:38:36;94415.19;;;20.51;47.83
4469;BME280;2247;42.666;23.292;2023-05-20T14:35:29;94367.84;;;20.42;50.16
4469;BME280;2247;42.666;23.292;2023-05-20T14:38:06;94351.09;;;20.33;50.16
4469;BME280;2247;42.666;23.292;2023-05-20T14:40:34;94367.06;;;20.42;50.34
4469;BME280;2247;42.666;23.292;2023-05-20T14:43:04;94358.25;;;20.41;49.13
4469;BME280;2247;42.666;23.292;2023-05-20T14:45:32;94359.28;;;20.37;48.95
4469;BME280;2247;42.666;23.292;2023-05-20T14:48:00;94353.22;;;20.40;49.06
4469;BME280;2247;42.666;23.292;2023-05-20T14:50:29;94343.22;;;20.49;49.01
4469;BME280;2247;42.666;23.292;2023-05-20T14:52:56;94339.56;;;20.54;48.74
4469;BME280;2247;42.666;23.292;2023-05-20T14:55:25;94344.34;;;20.60;48.07
4469;BME280;2247;42.666;23.292;2023-05-20T14:57:53;94326.38;;;20.49;48.77
4469;BME280;2247;42.666;23.292;2023-05-20T15:00:21;94346.00;;;20.65;48.22
4469;BME280;2247;42.666;23.292;2023-05-20T15:02:48;94342.53;;;20.76;48.16
4469;BME280;2247;42.666;23.292;2023-05-20T15:05:16;94327.50;;;20.72;48.49
4469;BME280;2247;42.666;23.292;2023-05-20T15:07:45;94337.88;;;20.86;47.95
4469;BME280;2247;42.666;23.292;2023-05-20T15:10:18;94342.09;;;20.62;48.85
4469;BME280;2247;42.666;23.292;2023-05-20T15:12:45;94339.66;;;20.57;49.34
4469;BME280;2247;42.666;23.292;2023-05-20T15:15:13;94343.44;;;20.56;49.95
4469;BME280;2247;42.666;23.292;2023-05-20T15:17:42;94353.91;;;20.61;50.74
4469;BME280;2247;42.666;23.292;2023-05-20T15:20:10;94333.63;;;20.48;50.58
4469;BME280;2247;42.666;23.292;2023-05-20T15:22:41;94323.13;;;20.43;51.37
4469;BME280;2247;42.666;23.292;2023-05-20T15:25:21;94344.78;;;20.50;51.15
4469;BME280;2247;42.666;23.292;2023-05-20T15:27:49;94329.38;;;20.35;51.02
4469;BME280;2247;42.666;23.292;2023-05-20T15:30:18;94289.63;;;20.25;51.87
4469;BME280;2247;42.666;23.292;2023-05-20T15:32:47;94337.97;;;20.40;52.36
4469;BME280;2247;42.666;23.292;2023-05-20T15:35:27;94341.53;;;20.44;52.39
4469;BME280;2247;42.666;23.292;2023-05-20T15:37:54;94350.47;;;20.49;52.49
4469;BME280;2247;42.666;23.292;2023-05-20T15:40:24;94323.81;;;20.52;50.81
4469;BME280;2247;42.666;23.292;2023-05-20T15:42:52;94323.47;;;20.41;50.89
4469;BME280;2247;42.666;23.292;2023-05-20T15:45:21;94343.22;;;20.49;50.08
4469;BME280;2247;42.666;23.292;2023-05-20T15:47:48;94329.03;;;20.49;50.87
4469;BME280;2247;42.666;23.292;2023-05-20T15:50:16;94327.84;;;20.46;50.68
4469;BME280;2247;42.666;23.292;2023-05-20T15:52:45;94322.47;;;20.46;49.30
4469;BME280;2247;42.666;23.292;2023-05-20T15:55:12;94329.03;;;20.49;49.07
4469;BME280;2247;42.666;23.292;2023-05-20T15:57:41;94332.50;;;20.49;49.37
4469;BME280;2247;42.666;23.292;2023-05-20T16:00:09;94318.06;;;20.17;48.97
4469;BME280;2247;42.666;23.292;2023-05-20T16:02:37;94342.63;;;20.31;49.86
4469;BME280;2247;42.666;23.292;2023-05-20T16:05:06;94325.53;;;20.24;50.03
4469;BME280;2247;42.666;23.292;2023-05-20T16:07:34;94325.72;;;20.06;52.03
4469;BME280;2247;42.666;23.292;2023-05-20T16:10:02;94321.75;;;20.25;52.41
4469;BME280;2247;42.666;23.292;2023-05-20T16:12:30;94304.09;;;19.99;53.69
4469;BME280;2247;42.666;23.292;2023-05-20T16:14:58;94339.25;;;20.22;52.83
4469;BME280;2247;42.666;23.292;2023-05-20T16:17:26;94332.41;;;20.13;53.02
4469;BME280;2247;42.666;23.292;2023-05-20T16:19:53;94346.16;;;20.11;53.05
4469;BME280;2247;42.666;23.292;2023-05-20T16:22:19;94348.69;;;20.08;53.27
4469;BME280;2247;42.666;23.292;2023-05-20T16:24:46;94350.03;;;20.01;53.51
4469;BME280;2247;42.666;23.292;2023-05-20T16:27:13;94336.53;;;19.98;53.60
4469;BME280;2247;42.666;23.292;2023-05-20T16:29:43;94340.31;;;19.97;54.47
4469;BME280;2247;42.666;23.292;2023-05-20T16:34:54;94325.25;;;19.92;53.72
4469;BME280;2247;42.666;23.292;2023-05-20T16:37:22;94306.56;;;19.72;53.79
4469;BME280;2247;42.666;23.292;2023-05-20T16:39:50;94337.81;;;19.80;53.81
4469;BME280;2247;42.666;23.292;2023-05-20T16:42:18;94337.50;;;19.93;54.09
4469;BME280;2247;42.666;23.292;2023-05-20T16:44:47;94344.97;;;19.88;54.30
4469;BME280;2247;42.666;23.292;2023-05-20T16:47:15;94348.75;;;19.87;54.53
4469;BME280;2247;42.666;23.292;2023-05-20T16:49:43;94350.53;;;19.83;54.96
4469;BME280;2247;42.666;23.292;2023-05-20T16:52:13;94342.38;;;19.79;54.99
4469;BME280;2247;42.666;23.292;2023-05-20T16:54:40;94337.72;;;19.88;55.04
4469;BME280;2247;42.666;23.292;2023-05-20T16:57:09;94345.28;;;19.86;53.91
4469;BME280;2247;42.666;23.292;2023-05-20T16:59:38;94349.53;;;19.87;54.07
4469;BME280;2247;42.666;23.292;2023-05-20T17:02:06;94351.97;;;19.80;53.21
4469;BME280;2247;42.666;23.292;2023-05-20T17:04:33;94362.19;;;19.78;52.77
4469;BME280;2247;42.666;23.292;2023-05-20T17:07:02;94353.91;;;19.71;52.11
4469;BME280;2247;42.666;23.292;2023-05-20T17:09:32;94357.91;;;19.65;51.91
4469;BME280;2247;42.666;23.292;2023-05-20T17:11:59;94350.09;;;19.60;52.10
4469;BME280;2247;42.666;23.292;2023-05-20T17:14:26;94346.41;;;19.44;51.87
4469;BME280;2247;42.666;23.292;2023-05-20T17:16:55;94351.94;;;19.47;51.03
4469;BME280;2247;42.666;23.292;2023-05-20T17:19:23;94363.69;;;19.55;50.23
4469;BME280;2247;42.666;23.292;2023-05-20T17:21:50;94363.09;;;19.49;49.98
4469;BME280;2247;42.666;23.292;2023-05-20T17:24:18;94367.19;;;19.47;49.15
4469;BME280;2247;42.666;23.292;2023-05-20T17:27:14;94389.97;;;19.44;49.26
4469;BME280;2247;42.666;23.292;2023-05-20T17:29:44;94324.00;;;19.15;49.54
4469;BME280;2247;42.666;23.292;2023-05-20T17:32:25;94349.81;;;19.32;49.34
4469;BME280;2247;42.666;23.292;2023-05-20T17:34:53;94366.59;;;19.41;49.07
4469;BME280;2247;42.666;23.292;2023-05-20T17:37:20;94372.81;;;19.45;48.96
4469;BME280;2247;42.666;23.292;2023-05-20T17:39:47;94364.75;;;19.33;48.73
4469;BME280;2247;42.666;23.292;2023-05-20T17:42:16;94377.78;;;19.35;48.94
4469;BME280;2247;42.666;23.292;2023-05-20T17:44:43;94387.38;;;19.36;48.41
4469;BME280;2247;42.666;23.292;2023-05-20T17:47:11;94357.00;;;19.19;48.42
4469;BME280;2247;42.666;23.292;2023-05-20T17:49:38;94378.13;;;19.33;48.80
4469;BME280;2247;42.666;23.292;2023-05-20T17:52:10;94373.16;;;19.23;49.10
4469;BME280;2247;42.666;23.292;2023-05-20T17:54:43;94382.16;;;19.39;49.15
4469;BME280;2247;42.666;23.292;2023-05-20T18:02:34;94355.09;;;19.20;48.32
4469;BME280;2247;42.666;23.292;2023-05-20T18:05:04;94387.97;;;19.41;48.18
4469;BME280;2247;42.666;23.292;2023-05-20T18:07:41;94392.53;;;19.41;47.90
4469;BME280;2247;42.666;23.292;2023-05-20T18:10:09;94395.31;;;19.44;48.09
4469;BME280;2247;42.666;23.292;2023-05-20T18:12:37;94408.25;;;19.42;48.03
4469;BME280;2247;42.666;23.292;2023-05-20T18:15:06;94400.06;;;19.47;48.20
4469;BME280;2247;42.666;23.292;2023-05-20T18:17:34;94392.22;;;19.42;48.29
4469;BME280;2247;42.666;23.292;2023-05-20T18:20:01;94393.44;;;19.45;47.86
4469;BME280;2247;42.666;23.292;2023-05-20T18:22:28;94383.84;;;19.44;48.43
4469;BME280;2247;42.666;23.292;2023-05-20T18:24:55;94401.94;;;19.47;48.23
4469;BME280;2247;42.666;23.292;2023-05-20T18:27:21;94394.16;;;19.33;48.13